^^
Saratoga-Weather Station Historical Data
Daily Summary for August 06, 2022 Units:  Both    English   Metric
Daily Weekly Monthly Yearly Custom
  High: Low: Average:
Temperature: 65.7 °F /  18.7 °C 62.1 °F /  16.7 °C 64 °F /  17.8 °C
Dew Point: 55.6 °F /  13.1 °C 51.8 °F /  11 °C 53.6 °F /  12 °C
Humidity: 70% 68% 69%
Wind Speed: 6mph /  9.7km/h - 2.1mph /  3.4km/h
Wind Gust: 8mph /  12.9km/h - -
Wind- - West
Pressure: 30.2 in /  1022.7 hPa 30.2 in /  1021.3 hPa -
Precipitation: 0 in /  0.0 mm    
Historical Graphs
 
 
Tabular Data for August 06, 2022
Time Temperature Dew Point Pressure Wind Wind Speed Wind Gust Humidity Rainfall Rate (Hourly) solar
00:04 65.7 °F /  18.7 °C 55.6 °F /  13.1 °C 30.2in /  1021.3hPa WSW 2.9mph /  4.7km/h 4mph /  6.4km/h 70% 0in /  0.0mm 0 W/m2
00:09 65.7 °F /  18.7 °C 55.6 °F /  13.1 °C 30.2in /  1021.3hPa NNW 2.9mph /  4.7km/h 4mph /  6.4km/h 70% 0in /  0.0mm 0 W/m2
00:14 65.7 °F /  18.7 °C 55.6 °F /  13.1 °C 30.2in /  1021.3hPa West 2mph /  3.2km/h 6mph /  9.7km/h 70% 0in /  0.0mm 0 W/m2
00:19 65.5 °F /  18.6 °C 55.4 °F /  13 °C 30.2in /  1021.3hPa West 2.9mph /  4.7km/h 3mph /  4.8km/h 70% 0in /  0.0mm 0 W/m2
00:24 65.5 °F /  18.6 °C 55.4 °F /  13 °C 30.2in /  1021.7hPa WNW 2.9mph /  4.7km/h 5mph /  8km/h 70% 0in /  0.0mm 0 W/m2
00:29 65.3 °F /  18.5 °C 55.2 °F /  12.9 °C 30.2in /  1021.7hPa WSW 2.9mph /  4.7km/h 4mph /  6.4km/h 70% 0in /  0.0mm 0 W/m2
00:34 65.1 °F /  18.4 °C 55 °F /  12.8 °C 30.2in /  1021.7hPa NNW 0.9mph /  1.4km/h 7mph /  11.3km/h 70% 0in /  0.0mm 0 W/m2
00:39 65.1 °F /  18.4 °C 54.7 °F /  12.6 °C 30.2in /  1021.7hPa WSW 2.9mph /  4.7km/h 4mph /  6.4km/h 69% 0in /  0.0mm 0 W/m2
00:44 64.9 °F /  18.3 °C 54.5 °F /  12.5 °C 30.2in /  1021.7hPa WNW 2mph /  3.2km/h 7mph /  11.3km/h 69% 0in /  0.0mm 0 W/m2
00:49 64.9 °F /  18.3 °C 54.5 °F /  12.5 °C 30.2in /  1021.7hPa NW 0.9mph /  1.4km/h 4mph /  6.4km/h 69% 0in /  0.0mm 0 W/m2
00:54 64.8 °F /  18.2 °C 54.3 °F /  12.4 °C 30.2in /  1022.0hPa WSW 2.9mph /  4.7km/h 3mph /  4.8km/h 69% 0in /  0.0mm 0 W/m2
00:59 64.8 °F /  18.2 °C 54.7 °F /  12.6 °C 30.2in /  1022.0hPa NW 0.9mph /  1.4km/h 4mph /  6.4km/h 70% 0in /  0.0mm 0 W/m2
01:04 64.6 °F /  18.1 °C 54.5 °F /  12.5 °C 30.2in /  1022.0hPa West 2mph /  3.2km/h 2mph /  3.2km/h 70% 0in /  0.0mm 0 W/m2
01:09 64.4 °F /  18 °C 54.3 °F /  12.4 °C 30.2in /  1022.0hPa Calm   3mph /  4.8km/h 70% 0in /  0.0mm 0 W/m2
01:14 64.2 °F /  17.9 °C 53.8 °F /  12.1 °C 30.2in /  1022.0hPa NW 2mph /  3.2km/h 3mph /  4.8km/h 69% 0in /  0.0mm 0 W/m2
01:19 64 °F /  17.8 °C 53.6 °F /  12 °C 30.2in /  1022.0hPa North 2.9mph /  4.7km/h 3mph /  4.8km/h 69% 0in /  0.0mm 0 W/m2
01:24 64 °F /  17.8 °C 53.6 °F /  12 °C 30.2in /  1022.0hPa NE 0.9mph /  1.4km/h 6mph /  9.7km/h 69% 0in /  0.0mm 0 W/m2
01:29 64 °F /  17.8 °C 53.6 °F /  12 °C 30.2in /  1022.0hPa NE 2mph /  3.2km/h 2mph /  3.2km/h 69% 0in /  0.0mm 0 W/m2
01:35 63.9 °F /  17.7 °C 53.4 °F /  11.9 °C 30.2in /  1022.4hPa WSW 2mph /  3.2km/h 8mph /  12.9km/h 69% 0in /  0.0mm 0 W/m2
01:40 63.9 °F /  17.7 °C 53.4 °F /  11.9 °C 30.2in /  1022.0hPa NNW 0.9mph /  1.4km/h 6mph /  9.7km/h 69% 0in /  0.0mm 0 W/m2
01:45 63.7 °F /  17.6 °C 52.9 °F /  11.6 °C 30.2in /  1022.4hPa NNW 2mph /  3.2km/h 8mph /  12.9km/h 68% 0in /  0.0mm 0 W/m2
01:50 63.7 °F /  17.6 °C 53.2 °F /  11.8 °C 30.2in /  1022.4hPa NW 0.9mph /  1.4km/h 4mph /  6.4km/h 69% 0in /  0.0mm 0 W/m2
01:55 63.3 °F /  17.4 °C 52.5 °F /  11.4 °C 30.2in /  1022.4hPa NW 2.9mph /  4.7km/h 4mph /  6.4km/h 68% 0in /  0.0mm 0 W/m2
02:00 63.3 °F /  17.4 °C 52.5 °F /  11.4 °C 30.2in /  1022.4hPa WNW 2mph /  3.2km/h 8mph /  12.9km/h 68% 0in /  0.0mm 0 W/m2
02:05 63.1 °F /  17.3 °C 52.3 °F /  11.3 °C 30.2in /  1022.4hPa North 0.9mph /  1.4km/h 6mph /  9.7km/h 68% 0in /  0.0mm 0 W/m2
02:10 63 °F /  17.2 °C 52.2 °F /  11.2 °C 30.2in /  1022.4hPa West 2.9mph /  4.7km/h 7mph /  11.3km/h 68% 0in /  0.0mm 0 W/m2
02:15 63 °F /  17.2 °C 52.7 °F /  11.5 °C 30.2in /  1022.4hPa NNW 2mph /  3.2km/h 2mph /  3.2km/h 69% 0in /  0.0mm 0 W/m2
02:20 62.8 °F /  17.1 °C 52.5 °F /  11.4 °C 30.2in /  1022.4hPa SW 0.9mph /  1.4km/h 7mph /  11.3km/h 69% 0in /  0.0mm 0 W/m2
02:25 62.4 °F /  16.9 °C 52.2 °F /  11.2 °C 30.2in /  1022.4hPa West 2.9mph /  4.7km/h 4mph /  6.4km/h 69% 0in /  0.0mm 0 W/m2
02:30 62.2 °F /  16.8 °C 52 °F /  11.1 °C 30.2in /  1022.4hPa West 2.9mph /  4.7km/h 5mph /  8km/h 69% 0in /  0.0mm 0 W/m2
02:35 62.2 °F /  16.8 °C 52 °F /  11.1 °C 30.2in /  1022.4hPa West 6mph /  9.7km/h 7mph /  11.3km/h 69% 0in /  0.0mm 0 W/m2
02:40 62.1 °F /  16.7 °C 51.8 °F /  11 °C 30.2in /  1022.4hPa Calm   4mph /  6.4km/h 69% 0in /  0.0mm 0 W/m2
02:45 62.1 °F /  16.7 °C 52.2 °F /  11.2 °C 30.2in /  1022.7hPa WNW 2.9mph /  4.7km/h 7mph /  11.3km/h 70% 0in /  0.0mm 0 W/m2
Juneau County Weather
Compliments of Weather Underground - 2 mb